createdAt,value
2023-02-15T00:01:20.844Z,102197.50
2023-02-15T00:04:25.865Z,102197.94
2023-02-15T00:07:28.458Z,102194.91
2023-02-15T00:10:31.334Z,102174.41
2023-02-15T00:13:34.141Z,102200.44
2023-02-15T00:16:37.309Z,102193.59
2023-02-15T00:19:41.138Z,102196.63
2023-02-15T00:22:44.078Z,102191.66
2023-02-15T00:25:46.724Z,102193.59
2023-02-15T00:28:49.670Z,102187.00
2023-02-15T00:31:53.218Z,102201.19
2023-02-15T00:34:56.202Z,102195.34
2023-02-15T00:38:00.323Z,102194.34
2023-02-15T00:41:05.369Z,102195.56
2023-02-15T00:44:08.508Z,102187.69
2023-02-15T00:47:11.420Z,102190.31
2023-02-15T00:50:14.150Z,102194.78
2023-02-15T00:53:17.518Z,102150.38
2023-02-15T00:56:20.673Z,102183.03
2023-02-15T00:59:23.595Z,102183.69
2023-02-15T01:02:26.305Z,102183.22
2023-02-15T01:05:30.842Z,102179.13
2023-02-15T01:08:33.574Z,102148.19
2023-02-15T01:11:36.572Z,102150.38
2023-02-15T01:14:39.329Z,102172.37
2023-02-15T01:17:42.526Z,102154.53
2023-02-15T01:20:45.506Z,102171.50
2023-02-15T01:23:50.239Z,102174.41
2023-02-15T01:26:52.837Z,102171.16
2023-02-15T01:29:56.600Z,102169.03
2023-02-15T01:32:59.609Z,102172.53
2023-02-15T01:36:03.778Z,102129.22
2023-02-15T01:39:08.911Z,102163.22
2023-02-15T01:42:12.947Z,102162.13
2023-02-15T01:45:31.004Z,102162.34
2023-02-15T01:48:34.110Z,102157.31
2023-02-15T01:51:42.488Z,102156.97
2023-02-15T01:54:48.280Z,102154.63
2023-02-15T01:57:52.123Z,102152.56
2023-02-15T02:00:59.634Z,102149.31
2023-02-15T02:04:03.168Z,102112.84
2023-02-15T02:07:07.988Z,102149.72
2023-02-15T02:10:14.194Z,102145.22
2023-02-15T02:13:17.278Z,102145.16
2023-02-15T02:16:23.032Z,102137.31
2023-02-15T02:19:41.539Z,102136.13
2023-02-15T02:23:05.696Z,102143.81
2023-02-15T02:26:39.045Z,102143.06
2023-02-15T02:29:55.630Z,102136.28
2023-02-15T02:33:20.604Z,102148.28
2023-02-15T02:36:36.851Z,102140.53
2023-02-15T02:39:56.049Z,102137.19
2023-02-15T02:43:12.391Z,102151.47
2023-02-15T02:46:25.585Z,102142.63
2023-02-15T02:49:31.857Z,102136.06
2023-02-15T02:52:44.923Z,102137.50
2023-02-15T02:55:54.928Z,102136.03
2023-02-15T02:59:09.121Z,102110.38
2023-02-15T03:02:27.207Z,102136.62
2023-02-15T03:05:31.315Z,102130.56
2023-02-15T03:08:39.146Z,102146.19
2023-02-15T03:11:46.322Z,102157.09
2023-02-15T03:14:57.126Z,102147.00
2023-02-15T03:18:03.938Z,102147.97
2023-02-15T03:21:09.414Z,102149.19
2023-02-15T03:24:18.092Z,102153.16
2023-02-15T03:27:25.675Z,102153.78
2023-02-15T03:30:32.305Z,102151.53
2023-02-15T03:33:40.042Z,102144.22
2023-02-15T03:36:48.399Z,102148.91
2023-02-15T03:40:20.310Z,102151.25
2023-02-15T03:43:41.989Z,102156.91
2023-02-15T03:46:55.761Z,102160.97
2023-02-15T03:50:03.943Z,102130.78
2023-02-15T03:53:11.710Z,102155.59
2023-02-15T03:56:14.560Z,102147.19
2023-02-15T03:59:35.654Z,102158.44
2023-02-15T04:02:58.501Z,102156.81
2023-02-15T04:06:03.797Z,102156.25
2023-02-15T04:09:25.057Z,102147.41
2023-02-15T04:12:28.366Z,102138.97
2023-02-15T04:15:49.589Z,102154.00
2023-02-15T04:19:11.742Z,102153.34
2023-02-15T04:22:32.826Z,102147.38
2023-02-15T04:25:35.868Z,102150.00
2023-02-15T04:28:38.855Z,102138.31
2023-02-15T04:31:44.021Z,102151.87
2023-02-15T04:34:46.678Z,102134.38
2023-02-15T04:37:49.561Z,102148.59
2023-02-15T04:40:53.161Z,102149.63
2023-02-15T04:43:56.055Z,102139.75
2023-02-15T04:46:58.652Z,102144.59
2023-02-15T04:50:01.766Z,102128.53
2023-02-15T04:53:12.218Z,102132.56
2023-02-15T04:56:15.201Z,102147.66
2023-02-15T04:59:18.006Z,102143.69
2023-02-15T05:02:21.494Z,102152.22
2023-02-15T05:05:24.150Z,102157.84
2023-02-15T05:08:27.082Z,102118.16
2023-02-15T05:11:29.820Z,102160.78
2023-02-15T05:14:32.840Z,102157.47
2023-02-15T05:17:35.667Z,102167.34
2023-02-15T05:20:38.718Z,102172.59
2023-02-15T05:23:41.347Z,102150.69
2023-02-15T05:27:02.942Z,102179.25
2023-02-15T05:30:06.525Z,102189.25
2023-02-15T05:33:10.129Z,102185.84
2023-02-15T05:36:13.174Z,102191.03
2023-02-15T05:39:16.400Z,102185.66
2023-02-15T05:42:19.042Z,102176.31
2023-02-15T05:45:21.996Z,102185.38
2023-02-15T05:48:26.776Z,102183.56
2023-02-15T05:51:29.751Z,102187.59
2023-02-15T05:54:32.426Z,102195.50
2023-02-15T05:57:36.530Z,102200.06
2023-02-15T06:00:39.167Z,102202.00
2023-02-15T06:03:42.453Z,102204.53
2023-02-15T06:06:45.083Z,102200.97
2023-02-15T06:09:48.801Z,102201.09
2023-02-15T06:15:11.330Z,102206.97
2023-02-15T06:18:14.688Z,102206.97
2023-02-15T06:21:17.562Z,102202.41
2023-02-15T06:24:20.527Z,102186.81
2023-02-15T06:27:23.178Z,102205.88
2023-02-15T06:30:26.251Z,102203.97
2023-02-15T06:33:29.032Z,102208.03
2023-02-15T06:36:32.615Z,102195.87
2023-02-15T06:39:35.997Z,102207.38
2023-02-15T06:42:39.055Z,102193.47
2023-02-15T06:45:42.381Z,102197.69
2023-02-15T06:48:45.335Z,102216.78
2023-02-15T06:51:47.919Z,102223.75
2023-02-15T06:54:53.514Z,102231.59
2023-02-15T06:57:56.242Z,102228.97
2023-02-15T07:00:59.297Z,102234.47
2023-02-15T07:04:01.982Z,102228.03
2023-02-15T07:07:04.927Z,102234.06
2023-02-15T07:10:07.959Z,102233.00
2023-02-15T07:13:11.030Z,102228.94
2023-02-15T07:16:14.073Z,102228.34
2023-02-15T07:19:17.380Z,102231.91
2023-02-15T07:22:27.047Z,102231.31
2023-02-15T07:25:31.284Z,102223.56
2023-02-15T07:28:38.960Z,102223.97
2023-02-15T07:31:54.035Z,102224.50
2023-02-15T07:34:57.258Z,102228.84
2023-02-15T07:38:03.343Z,102224.06
2023-02-15T07:41:15.036Z,102221.16
2023-02-15T07:44:21.523Z,102218.75
2023-02-15T07:47:24.942Z,102217.41
2023-02-15T07:50:28.108Z,102224.47
2023-02-15T07:53:31.810Z,102220.97
2023-02-15T07:56:37.065Z,102212.22
2023-02-15T07:59:42.238Z,102211.75
2023-02-15T08:03:15.261Z,102215.94
2023-02-15T08:06:18.781Z,102211.59
2023-02-15T08:09:22.621Z,102207.34
2023-02-15T08:12:32.265Z,102217.44
2023-02-15T08:15:36.336Z,102211.34
2023-02-15T08:18:41.464Z,102203.13
2023-02-15T08:21:47.846Z,102210.38
2023-02-15T08:24:57.046Z,102211.38
2023-02-15T08:28:07.662Z,102215.94
2023-02-15T08:31:23.146Z,102215.56
2023-02-15T08:37:51.383Z,102209.63
2023-02-15T08:40:57.078Z,102207.44
2023-02-15T08:44:05.771Z,102200.34
2023-02-15T08:47:08.712Z,102199.25
2023-02-15T08:50:12.943Z,102205.75
2023-02-15T08:53:16.939Z,102186.31
2023-02-15T08:56:22.817Z,102195.91
2023-02-15T08:59:27.951Z,102183.00
2023-02-15T09:02:38.128Z,102187.44
2023-02-15T09:05:41.135Z,102167.66
2023-02-15T09:08:47.707Z,102180.09
2023-02-15T09:11:58.561Z,102179.25
2023-02-15T09:15:02.996Z,102183.75
2023-02-15T09:18:07.410Z,102173.75
2023-02-15T09:21:18.253Z,102184.06
2023-02-15T09:24:21.790Z,102178.28
2023-02-15T09:27:26.078Z,102181.25
2023-02-15T09:30:29.136Z,102179.69
2023-02-15T09:33:36.006Z,102180.97
2023-02-15T09:36:44.980Z,102176.34
2023-02-15T09:39:49.216Z,102171.88
2023-02-15T09:43:10.784Z,102176.94
2023-02-15T09:46:29.923Z,102174.50
2023-02-15T09:50:00.834Z,102168.59
2023-02-15T09:53:25.186Z,102164.81
2023-02-15T09:56:38.622Z,102167.31
2023-02-15T09:59:57.881Z,102157.41
2023-02-15T10:03:26.739Z,102162.63
2023-02-15T10:06:48.103Z,102169.81
2023-02-15T10:10:11.066Z,102155.53
2023-02-15T10:13:20.355Z,102152.16
2023-02-15T10:16:42.734Z,102156.50
2023-02-15T10:20:02.056Z,102156.63
2023-02-15T10:23:28.091Z,102146.75
2023-02-15T10:26:57.098Z,102144.97
2023-02-15T10:30:14.623Z,102143.66
2023-02-15T10:33:41.357Z,102148.63
2023-02-15T10:36:50.045Z,102143.94
2023-02-15T10:40:30.780Z,102129.44
2023-02-15T10:44:02.487Z,102135.81
2023-02-15T10:47:12.887Z,102130.28
2023-02-15T10:50:27.659Z,102120.44
2023-02-15T10:53:30.662Z,102116.81
2023-02-15T10:56:45.265Z,102127.22
2023-02-15T11:00:10.578Z,102113.34
2023-02-15T11:03:31.251Z,102106.62
2023-02-15T11:06:37.204Z,102113.53
2023-02-15T11:09:45.785Z,102107.28
2023-02-15T11:12:50.728Z,102103.34
2023-02-15T11:16:01.194Z,102090.31
2023-02-15T11:19:14.118Z,102100.44
2023-02-15T11:22:18.013Z,102091.56
2023-02-15T11:25:26.495Z,102081.13
2023-02-15T11:28:43.955Z,102085.22
2023-02-15T11:31:54.613Z,102084.28
2023-02-15T11:35:11.721Z,102081.47
2023-02-15T11:38:19.835Z,102073.28
2023-02-15T11:41:28.342Z,102067.41
2023-02-15T11:44:36.037Z,102063.34
2023-02-15T11:47:39.243Z,102063.44
2023-02-15T11:50:43.965Z,102056.59
2023-02-15T11:53:47.783Z,102059.19
2023-02-15T11:56:50.775Z,102056.81
2023-02-15T12:00:11.596Z,102043.94
2023-02-15T12:03:33.944Z,102046.34
2023-02-15T12:07:02.352Z,102042.91
2023-02-15T12:10:19.232Z,102032.50
2023-02-15T12:13:22.129Z,102035.12
2023-02-15T12:16:28.540Z,102034.31
2023-02-15T12:19:37.746Z,102027.53
2023-02-15T12:22:47.270Z,102024.84
2023-02-15T12:25:55.292Z,102019.22
2023-02-15T12:29:08.749Z,102016.66
2023-02-15T12:32:19.742Z,102006.97
2023-02-15T12:35:37.173Z,102016.81
2023-02-15T12:38:39.944Z,102014.53
2023-02-15T12:41:47.030Z,101999.28
2023-02-15T12:45:02.901Z,102001.88
2023-02-15T12:48:23.933Z,102002.78
2023-02-15T12:51:26.570Z,101996.19
2023-02-15T12:54:39.587Z,101992.84
2023-02-15T12:57:44.223Z,101990.06
2023-02-15T13:00:47.736Z,101987.50
2023-02-15T13:04:14.432Z,101982.03
2023-02-15T13:07:17.612Z,101977.56
2023-02-15T13:10:36.873Z,101980.25
2023-02-15T13:13:53.010Z,101986.41
2023-02-15T13:17:00.093Z,101980.75
2023-02-15T13:20:11.559Z,101937.66
2023-02-15T13:23:33.802Z,101971.78
2023-02-15T13:26:37.816Z,101972.87
2023-02-15T13:29:43.782Z,101963.56
2023-02-15T13:32:51.181Z,101963.41
2023-02-15T13:36:09.011Z,101960.16
2023-02-15T13:39:45.416Z,101969.00
2023-02-15T13:43:03.426Z,101951.16
2023-02-15T13:46:21.465Z,101964.69
2023-02-15T13:49:52.677Z,101965.00
2023-02-15T13:53:07.788Z,101968.69
2023-02-15T13:56:25.922Z,101967.09
2023-02-15T13:59:45.914Z,101977.03
2023-02-15T14:03:19.010Z,101968.53
2023-02-15T14:06:22.137Z,101965.31
2023-02-15T14:09:42.933Z,101970.16
2023-02-15T14:13:06.550Z,101961.12
2023-02-15T14:16:34.859Z,101959.53
2023-02-15T14:20:00.761Z,101958.09
2023-02-15T14:23:31.934Z,101959.69
2023-02-15T14:26:45.843Z,101965.28
2023-02-15T14:29:59.967Z,101966.09
2023-02-15T14:33:40.896Z,101959.31
2023-02-15T14:36:43.648Z,101956.59
2023-02-15T14:40:20.094Z,101952.53
2023-02-15T14:43:52.396Z,101942.56
2023-02-15T14:46:58.205Z,101934.72
2023-02-15T14:50:34.829Z,101953.19
2023-02-15T14:53:40.020Z,101962.03
2023-02-15T14:56:45.320Z,101958.47
2023-02-15T14:59:51.343Z,101953.84
2023-02-15T15:02:55.526Z,101950.94
2023-02-15T15:06:05.493Z,101952.16
2023-02-15T15:09:20.872Z,101956.44
2023-02-15T15:12:23.695Z,101953.09
2023-02-15T15:15:29.825Z,101954.84
2023-02-15T15:18:54.599Z,101955.56
2023-02-15T15:22:02.942Z,101949.63
2023-02-15T15:25:36.864Z,101945.00
2023-02-15T15:28:39.694Z,101945.53
2023-02-15T15:31:54.993Z,101939.06
2023-02-15T15:35:41.375Z,101935.91
2023-02-15T15:39:03.314Z,101935.75
2023-02-15T15:42:22.386Z,101933.56
2023-02-15T15:46:00.207Z,101934.91
2023-02-15T15:49:16.527Z,101927.53
2023-02-15T15:52:21.855Z,101924.66
2023-02-15T15:55:28.900Z,101931.72
2023-02-15T15:58:32.755Z,101933.47
2023-02-15T16:01:42.470Z,101936.00
2023-02-15T16:04:49.671Z,101929.94
2023-02-15T16:07:52.535Z,101931.53
2023-02-15T16:10:56.538Z,101934.66
2023-02-15T16:13:59.718Z,101937.16
2023-02-15T16:17:05.804Z,101936.84
2023-02-15T16:20:19.647Z,101924.75
2023-02-15T16:23:37.830Z,101924.28
2023-02-15T16:27:03.210Z,101932.97
2023-02-15T16:30:25.106Z,101932.81
2023-02-15T16:33:37.635Z,101938.34
2023-02-15T16:36:40.536Z,101931.06
2023-02-15T16:39:45.095Z,101928.44
2023-02-15T16:42:48.445Z,101939.00
2023-02-15T16:45:52.153Z,101929.72
2023-02-15T16:48:59.815Z,101933.59
2023-02-15T16:52:09.616Z,101921.37
2023-02-15T16:55:23.483Z,101932.84
2023-02-15T16:58:39.522Z,101911.72
2023-02-15T17:01:46.005Z,101921.66
2023-02-15T17:05:14.736Z,101932.72
2023-02-15T17:08:27.423Z,101938.22
2023-02-15T17:11:42.002Z,101934.44
2023-02-15T17:14:45.270Z,101935.72
2023-02-15T17:17:47.922Z,101930.25
2023-02-15T17:20:53.379Z,101936.81
2023-02-15T17:24:05.335Z,101928.00
2023-02-15T17:27:22.213Z,101937.09
2023-02-15T17:30:31.651Z,101929.47
2023-02-15T17:33:35.506Z,101932.09
2023-02-15T17:36:58.788Z,101928.69
2023-02-15T17:40:15.608Z,101925.97
2023-02-15T17:43:18.526Z,101936.34
2023-02-15T17:46:25.124Z,101931.91
2023-02-15T17:49:34.992Z,101934.25
2023-02-15T17:52:38.168Z,101935.63
2023-02-15T17:55:43.958Z,101937.00
2023-02-15T17:58:47.343Z,101928.97
2023-02-15T18:02:09.053Z,101930.62
2023-02-15T18:05:34.510Z,101934.72
2023-02-15T18:08:57.666Z,101930.38
2023-02-15T18:12:01.578Z,101922.28
2023-02-15T18:15:06.737Z,101917.16
2023-02-15T18:18:12.529Z,101917.44
2023-02-15T18:21:19.033Z,101919.91
2023-02-15T18:24:24.815Z,101918.81
2023-02-15T18:27:29.079Z,101919.59
2023-02-15T18:30:33.501Z,101916.38
2023-02-15T18:33:44.514Z,101919.59
2023-02-15T18:36:48.898Z,101907.72
2023-02-15T18:39:55.894Z,101916.59
2023-02-15T18:42:59.381Z,101916.62
2023-02-15T18:46:03.049Z,101919.34
2023-02-15T18:49:06.361Z,101907.72
2023-02-15T18:52:18.831Z,101913.41
2023-02-15T18:55:25.218Z,101917.94
2023-02-15T18:58:28.803Z,101912.78
2023-02-15T19:01:39.239Z,101917.87
2023-02-15T19:04:42.478Z,101921.87
2023-02-15T19:07:48.696Z,101917.03
2023-02-15T19:10:51.994Z,101907.81
2023-02-15T19:13:55.307Z,101922.63
2023-02-15T19:17:00.618Z,101905.31
2023-02-15T19:20:04.033Z,101919.03
2023-02-15T19:23:14.613Z,101917.44
2023-02-15T19:26:17.816Z,101904.94
2023-02-15T19:29:26.714Z,101919.50
2023-02-15T19:32:31.247Z,101917.50
2023-02-15T19:35:35.723Z,101892.56
2023-02-15T19:38:41.064Z,101918.28
2023-02-15T19:41:44.338Z,101918.47
2023-02-15T19:44:47.722Z,101908.63
2023-02-15T19:47:52.481Z,101915.84
2023-02-15T19:50:57.141Z,101912.56
2023-02-15T19:54:00.367Z,101923.03
2023-02-15T19:57:03.605Z,101915.44
2023-02-15T20:00:22.071Z,101915.91
2023-02-15T20:03:25.960Z,101929.00
2023-02-15T20:06:29.012Z,101926.91
2023-02-15T20:09:37.887Z,101920.03
2023-02-15T20:12:42.679Z,101921.66
2023-02-15T20:15:47.258Z,101916.19
2023-02-15T20:18:51.513Z,101914.50
2023-02-15T20:21:55.428Z,101913.62
2023-02-15T20:24:59.162Z,101909.03
2023-02-15T20:28:02.424Z,101912.22
2023-02-15T20:31:06.745Z,101909.47
2023-02-15T20:34:11.461Z,101913.75
2023-02-15T20:37:28.927Z,101915.41
2023-02-15T20:40:35.078Z,101910.00
2023-02-15T20:43:38.222Z,101916.75
2023-02-15T20:46:41.983Z,101908.47
2023-02-15T20:49:44.952Z,101913.06
2023-02-15T20:52:50.534Z,101906.09
2023-02-15T20:55:53.741Z,101890.03
2023-02-15T20:58:57.006Z,101904.31
2023-02-15T21:02:03.052Z,101909.09
2023-02-15T21:05:16.716Z,101896.34
2023-02-15T21:08:22.712Z,101899.03
2023-02-15T21:11:27.654Z,101902.06
2023-02-15T21:14:30.669Z,101896.50
2023-02-15T21:17:34.104Z,101906.38
2023-02-15T21:20:43.982Z,101900.41
2023-02-15T21:23:47.833Z,101893.88
2023-02-15T21:26:51.328Z,101893.53
2023-02-15T21:29:54.217Z,101896.50
2023-02-15T21:32:56.964Z,101889.06
2023-02-15T21:36:00.128Z,101890.69
2023-02-15T21:39:05.365Z,101888.94
2023-02-15T21:42:29.476Z,101887.44
2023-02-15T21:45:52.490Z,101884.03
2023-02-15T21:48:55.722Z,101884.81
2023-02-15T21:52:14.323Z,101890.44
2023-02-15T21:55:17.653Z,101875.78
2023-02-15T21:58:24.413Z,101880.75
2023-02-15T22:01:28.502Z,101880.50
2023-02-15T22:04:31.566Z,101879.34
2023-02-15T22:07:34.192Z,101873.41
2023-02-15T22:10:37.108Z,101875.91
2023-02-15T22:13:41.299Z,101877.16
2023-02-15T22:16:44.285Z,101873.75
2023-02-15T22:19:48.909Z,101875.53
2023-02-15T22:22:52.570Z,101873.84
2023-02-15T22:26:05.474Z,101877.19
2023-02-15T22:29:16.354Z,101865.62
2023-02-15T22:32:20.969Z,101872.97
2023-02-15T22:35:28.537Z,101877.97
2023-02-15T22:38:31.313Z,101882.25
2023-02-15T22:41:34.453Z,101881.09
2023-02-15T22:44:37.061Z,101879.22
2023-02-15T22:47:40.061Z,101880.75
2023-02-15T22:50:42.822Z,101868.66
2023-02-15T22:53:46.278Z,101875.59
2023-02-15T22:56:53.824Z,101876.59
2023-02-15T22:59:57.775Z,101872.47
2023-02-15T23:03:01.193Z,101871.59
2023-02-15T23:06:04.402Z,101881.47
2023-02-15T23:09:07.708Z,101883.44
2023-02-15T23:12:54.021Z,101880.78
2023-02-15T23:15:58.997Z,101889.06
2023-02-15T23:19:01.942Z,101882.22
2023-02-15T23:22:05.333Z,101880.22
2023-02-15T23:25:10.658Z,101881.72
2023-02-15T23:28:19.845Z,101879.47
2023-02-15T23:31:33.321Z,101886.31
2023-02-15T23:34:36.060Z,101877.06
2023-02-15T23:37:39.034Z,101878.47
2023-02-15T23:41:00.569Z,101882.47
2023-02-15T23:44:04.131Z,101872.97
2023-02-15T23:47:45.467Z,101877.22
2023-02-15T23:50:48.539Z,101883.12
2023-02-15T23:53:51.241Z,101876.50
2023-02-15T23:57:01.061Z,101871.66
